Century Venus — 3FXD2 — position and weather

sailwx.info

Track history (hours):
 
Tides and Currents Weather Stations Pressure Air Temp Water Temp Dewpoint Dewpoint Depression Visibility Wind Speed Wind Dir Waves Ship Positions

Century Venus

Last reported at 2016-Sep-15 04:33 UTC. Time now 2016-Sep-28 01:50 UTC.
Position N 27°54' W 082°25'.
Warning: this ship's position is 12 days out of date.

Length 137 m; draft 5.5 m.

Type: Cargo ship. MMSI: 357069000.

Date/timePositionNaut miles runAvg speedWind from/ knotsBaromVisibWave heightAir tempDewpointWater temp
2016-Sep-15 04:33N 27°54' W 082°25'0 0.0
2016-Sep-15 03:33N 27°54' W 082°25'0 0.0
2016-Sep-15 01:33N 27°54' W 082°25'0 0.0
2016-Sep-14 22:33N 27°54' W 082°25'0 0.0
2016-Sep-14 21:33N 27°54' W 082°25'1 0.4
2016-Sep-14 17:32N 27°56' W 082°26'0 0.0
2016-Sep-14 16:32N 27°56' W 082°26'0 0.0
2016-Sep-14 13:32N 27°56' W 082°26'0 0.0
2016-Sep-14 12:32N 27°56' W 082°26'0 0.0
2016-Sep-14 10:32N 27°56' W 082°26'0 0.0
2016-Sep-14 09:32N 27°56' W 082°26'0 0.0
2016-Sep-14 08:32N 27°56' W 082°26'0 0.0
2016-Sep-14 07:32N 27°56' W 082°26'1 1.5
2016-Sep-14 06:33N 27°54' W 082°26'6 2.0
2016-Sep-14 03:33N 27°48' W 082°25'0 0.0
2016-Sep-13 22:33N 27°48' W 082°25'0 0.0
2016-Sep-13 20:33N 27°48' W 082°25'0 0.0
2016-Sep-13 18:33N 27°48' W 082°25'0 0.0
2016-Sep-13 17:33N 27°48' W 082°25'0 0.0
2016-Sep-13 16:33N 27°48' W 082°25'0 0.0
2016-Sep-13 11:33N 27°48' W 082°25'0 0.0
2016-Sep-13 09:33N 27°48' W 082°25'0 0.0
2016-Sep-13 07:33N 27°48' W 082°25'0 0.0
2016-Sep-13 06:33N 27°48' W 082°25'0 0.0
2016-Sep-13 04:33N 27°48' W 082°25'0 0.0
2016-Sep-13 02:33N 27°48' W 082°25'0 0.0
2016-Sep-12 23:33N 27°48' W 082°25'5 2.3
2016-Sep-12 21:33N 27°48' W 082°30'19 9.3
2016-Sep-12 19:33N 27°37' W 082°47'  
2016-Sep-07 07:24N 27°35' W 083°13'  
Track history (hours):
 
Tides and Currents Weather Stations Pressure Air Temp Water Temp Dewpoint Dewpoint Depression Visibility Wind Speed Wind Dir Waves Ship Positions

Century Venus

Last reported at 2016-Sep-15 04:33 UTC. Time now 2016-Sep-28 01:50 UTC.
Position N 27°54' W 082°25'.
Warning: this ship's position is 12 days out of date.

Length 137 m; draft 5.5 m.

Type: Cargo ship. MMSI: 357069000.

Date/timePositionNaut miles runAvg speedWind from/ knotsBaromVisibWave heightAir tempDewpointWater temp
2016-Sep-15 04:33N 27°54' W 082°25'0 0.0
2016-Sep-15 03:33N 27°54' W 082°25'0 0.0
2016-Sep-15 01:33N 27°54' W 082°25'0 0.0
2016-Sep-14 22:33N 27°54' W 082°25'0 0.0
2016-Sep-14 21:33N 27°54' W 082°25'1 0.4
2016-Sep-14 17:32N 27°56' W 082°26'0 0.0
2016-Sep-14 16:32N 27°56' W 082°26'0 0.0
2016-Sep-14 13:32N 27°56' W 082°26'0 0.0
2016-Sep-14 12:32N 27°56' W 082°26'0 0.0
2016-Sep-14 10:32N 27°56' W 082°26'0 0.0
2016-Sep-14 09:32N 27°56' W 082°26'0 0.0
2016-Sep-14 08:32N 27°56' W 082°26'0 0.0
2016-Sep-14 07:32N 27°56' W 082°26'1 1.5
2016-Sep-14 06:33N 27°54' W 082°26'6 2.0
2016-Sep-14 03:33N 27°48' W 082°25'0 0.0
2016-Sep-13 22:33N 27°48' W 082°25'0 0.0
2016-Sep-13 20:33N 27°48' W 082°25'0 0.0
2016-Sep-13 18:33N 27°48' W 082°25'0 0.0
2016-Sep-13 17:33N 27°48' W 082°25'0 0.0
2016-Sep-13 16:33N 27°48' W 082°25'0 0.0
2016-Sep-13 11:33N 27°48' W 082°25'0 0.0
2016-Sep-13 09:33N 27°48' W 082°25'0 0.0
2016-Sep-13 07:33N 27°48' W 082°25'0 0.0
2016-Sep-13 06:33N 27°48' W 082°25'0 0.0
2016-Sep-13 04:33N 27°48' W 082°25'0 0.0
2016-Sep-13 02:33N 27°48' W 082°25'0 0.0
2016-Sep-12 23:33N 27°48' W 082°25'5 2.3
2016-Sep-12 21:33N 27°48' W 082°30'19 9.3
2016-Sep-12 19:33N 27°37' W 082°47'  
2016-Sep-07 07:24N 27°35' W 083°13'  

Dump ship's entire track history